createdAt,value
2023-03-12T00:00:27.431Z,32.10
2023-03-12T00:02:55.971Z,31.77
2023-03-12T00:05:25.832Z,34.57
2023-03-12T00:07:54.023Z,31.57
2023-03-12T00:10:22.268Z,29.47
2023-03-12T00:12:51.589Z,30.53
2023-03-12T00:15:19.798Z,28.30
2023-03-12T00:17:47.926Z,29.60
2023-03-12T00:20:16.577Z,29.90
2023-03-12T00:22:44.767Z,32.90
2023-03-12T00:25:14.372Z,31.60
2023-03-12T00:27:42.395Z,32.13
2023-03-12T00:30:13.453Z,30.73
2023-03-12T00:32:41.602Z,30.30
2023-03-12T00:35:10.098Z,29.83
2023-03-12T00:37:38.324Z,30.87
2023-03-12T00:40:09.206Z,30.57
2023-03-12T00:42:37.333Z,33.17
2023-03-12T00:45:05.816Z,31.13
2023-03-12T00:47:35.143Z,29.57
2023-03-12T00:50:03.227Z,30.80
2023-03-12T00:52:31.188Z,29.93
2023-03-12T00:54:59.219Z,30.30
2023-03-12T00:57:27.238Z,30.60
2023-03-12T00:59:55.247Z,30.70
2023-03-12T01:02:23.261Z,31.53
2023-03-12T01:04:52.658Z,29.27
2023-03-12T01:07:20.611Z,29.23
2023-03-12T01:09:48.602Z,30.30
2023-03-12T01:12:16.603Z,30.10
2023-03-12T01:14:44.564Z,29.57
2023-03-12T01:17:12.569Z,30.60
2023-03-12T01:19:40.546Z,30.37
2023-03-12T01:22:09.977Z,29.97
2023-03-12T01:24:38.073Z,31.07
2023-03-12T01:27:06.341Z,31.03
2023-03-12T01:29:34.344Z,30.97
2023-03-12T01:32:02.309Z,30.60
2023-03-12T01:34:30.819Z,30.10
2023-03-12T01:36:58.775Z,29.90
2023-03-12T01:39:28.150Z,31.17
2023-03-12T01:41:56.180Z,30.70
2023-03-12T01:44:24.181Z,30.37
2023-03-12T01:46:52.204Z,31.67
2023-03-12T01:49:24.034Z,30.50
2023-03-12T01:51:55.867Z,31.17
2023-03-12T01:54:27.517Z,30.67
2023-03-12T01:56:58.304Z,29.53
2023-03-12T01:59:30.530Z,29.00
2023-03-12T02:01:58.991Z,29.87
2023-03-12T02:04:29.924Z,29.43
2023-03-12T02:07:04.099Z,29.57
2023-03-12T02:09:33.627Z,29.87
2023-03-12T02:12:03.047Z,28.67
2023-03-12T02:14:31.185Z,28.70
2023-03-12T02:16:59.173Z,29.23
2023-03-12T02:19:37.061Z,28.43
2023-03-12T02:22:05.349Z,28.23
2023-03-12T02:24:40.497Z,30.77
2023-03-12T02:27:12.409Z,30.63
2023-03-12T02:29:43.045Z,30.90
2023-03-12T02:32:18.368Z,30.13
2023-03-12T02:34:48.108Z,31.23
2023-03-12T02:37:16.141Z,30.60
2023-03-12T02:39:48.722Z,29.50
2023-03-12T02:42:18.308Z,30.47
2023-03-12T02:44:46.377Z,29.30
2023-03-12T02:47:14.343Z,29.87
2023-03-12T02:49:42.333Z,28.97
2023-03-12T02:52:11.188Z,29.13
2023-03-12T02:54:39.185Z,29.83
2023-03-12T02:57:07.383Z,29.00
2023-03-12T02:59:36.747Z,29.03
2023-03-12T03:02:04.989Z,30.07
2023-03-12T03:04:34.835Z,29.27
2023-03-12T03:07:02.961Z,29.77
2023-03-12T03:09:31.008Z,29.70
2023-03-12T03:11:59.033Z,28.57
2023-03-12T03:14:27.053Z,27.70
2023-03-12T03:16:56.633Z,28.00
2023-03-12T03:19:24.859Z,28.67
2023-03-12T03:21:52.897Z,27.37
2023-03-12T03:24:21.069Z,28.20
2023-03-12T03:26:49.088Z,27.17
2023-03-12T03:29:17.162Z,27.67
2023-03-12T03:31:45.136Z,27.57
2023-03-12T03:34:14.530Z,27.27
2023-03-12T03:36:42.536Z,27.97
2023-03-12T03:39:10.478Z,28.17
2023-03-12T03:41:38.487Z,29.27
2023-03-12T03:44:07.814Z,27.53
2023-03-12T03:46:36.438Z,26.60
2023-03-12T03:49:04.610Z,25.87
2023-03-12T03:51:34.300Z,25.90
2023-03-12T03:54:02.278Z,23.63
2023-03-12T03:56:30.378Z,24.67
2023-03-12T03:58:59.002Z,25.53
2023-03-12T04:01:26.983Z,24.00
2023-03-12T04:03:54.966Z,25.27
2023-03-12T04:06:22.986Z,25.23
2023-03-12T04:08:52.629Z,25.60
2023-03-12T04:11:22.689Z,26.50
2023-03-12T04:13:51.560Z,25.53
2023-03-12T04:16:19.910Z,26.80
2023-03-12T04:18:47.947Z,26.83
2023-03-12T04:21:16.064Z,25.80
2023-03-12T04:23:44.095Z,26.63
2023-03-12T04:26:13.474Z,25.10
2023-03-12T04:28:41.494Z,25.27
2023-03-12T04:31:09.947Z,26.00
2023-03-12T04:33:40.336Z,23.70
2023-03-12T04:36:09.872Z,25.30
2023-03-12T04:38:38.109Z,25.17
2023-03-12T04:41:08.413Z,24.50
2023-03-12T04:43:38.069Z,24.37
2023-03-12T04:46:06.735Z,24.20
2023-03-12T04:48:35.514Z,24.40
2023-03-12T04:51:03.671Z,24.90
2023-03-12T04:53:32.102Z,23.60
2023-03-12T04:56:00.515Z,23.27
2023-03-12T04:58:28.806Z,23.67
2023-03-12T05:00:58.205Z,24.43
2023-03-12T05:03:26.343Z,23.43
2023-03-12T05:05:54.526Z,22.27
2023-03-12T05:08:22.549Z,23.40
2023-03-12T05:10:50.530Z,23.10
2023-03-12T05:13:20.920Z,24.17
2023-03-12T05:15:51.011Z,23.37
2023-03-12T05:18:21.538Z,24.10
2023-03-12T05:20:59.989Z,22.50
2023-03-12T05:23:28.210Z,22.47
2023-03-12T05:25:56.449Z,22.83
2023-03-12T05:28:27.866Z,22.87
2023-03-12T05:30:56.964Z,22.20
2023-03-12T05:33:27.368Z,24.60
2023-03-12T05:35:55.750Z,22.67
2023-03-12T05:38:23.738Z,22.83
2023-03-12T05:40:56.033Z,20.70
2023-03-12T05:43:24.445Z,21.37
2023-03-12T05:45:54.028Z,22.10
2023-03-12T05:48:22.106Z,21.13
2023-03-12T05:50:51.497Z,21.53
2023-03-12T05:53:19.503Z,20.83
2023-03-12T05:55:47.551Z,22.17
2023-03-12T05:58:15.518Z,22.43
2023-03-12T06:00:44.536Z,21.77
2023-03-12T06:03:13.315Z,20.27
2023-03-12T06:05:41.331Z,20.47
2023-03-12T06:08:10.666Z,21.33
2023-03-12T06:10:40.099Z,20.07
2023-03-12T06:13:08.771Z,19.90
2023-03-12T06:15:36.790Z,19.53
2023-03-12T06:18:04.885Z,21.50
2023-03-12T06:20:32.891Z,19.80
2023-03-12T06:23:00.898Z,19.50
2023-03-12T06:25:30.301Z,19.27
2023-03-12T06:27:58.298Z,20.23
2023-03-12T06:30:27.107Z,19.57
2023-03-12T06:32:55.492Z,19.37
2023-03-12T06:35:23.550Z,19.00
2023-03-12T06:37:51.528Z,19.77
2023-03-12T06:40:19.860Z,19.53
2023-03-12T06:42:49.193Z,18.67
2023-03-12T06:45:17.219Z,18.27
2023-03-12T06:47:45.265Z,18.43
2023-03-12T06:50:13.222Z,17.23
2023-03-12T06:52:41.866Z,18.10
2023-03-12T06:55:10.285Z,16.37
2023-03-12T06:57:38.354Z,16.20
2023-03-12T07:00:09.941Z,16.13
2023-03-12T07:02:38.064Z,17.20
2023-03-12T07:05:06.968Z,15.10
2023-03-12T07:07:34.958Z,15.47
2023-03-12T07:10:02.977Z,15.00
2023-03-12T07:12:30.951Z,15.97
2023-03-12T07:14:58.898Z,15.23
2023-03-12T07:17:28.348Z,15.80
2023-03-12T07:19:56.303Z,15.10
2023-03-12T07:22:24.366Z,15.60
2023-03-12T07:24:52.428Z,15.33
2023-03-12T07:27:20.697Z,14.10
2023-03-12T07:29:49.488Z,13.83
2023-03-12T07:32:17.632Z,13.67
2023-03-12T07:34:47.168Z,13.60
2023-03-12T07:37:15.365Z,12.33
2023-03-12T07:39:43.907Z,12.63
2023-03-12T07:42:13.714Z,12.43
2023-03-12T07:44:41.794Z,12.77
2023-03-12T07:47:23.125Z,12.03
2023-03-12T07:49:54.180Z,12.93
2023-03-12T07:52:23.567Z,11.97
2023-03-12T07:54:52.737Z,13.10
2023-03-12T07:57:21.016Z,13.70
2023-03-12T07:59:49.097Z,13.37
2023-03-12T08:02:17.451Z,13.20
2023-03-12T08:04:45.660Z,12.50
2023-03-12T08:07:15.672Z,11.97
2023-03-12T08:09:44.246Z,11.27
2023-03-12T08:12:12.363Z,12.03
2023-03-12T08:14:40.561Z,12.17
2023-03-12T08:17:08.716Z,13.07
2023-03-12T08:19:37.470Z,12.17
2023-03-12T08:22:05.533Z,12.53
2023-03-12T08:24:35.668Z,12.30
2023-03-12T08:27:03.774Z,12.93
2023-03-12T08:29:33.555Z,11.73
2023-03-12T08:32:05.344Z,13.03
2023-03-12T08:34:33.782Z,13.50
2023-03-12T08:37:01.841Z,12.93
2023-03-12T08:39:29.932Z,12.47
2023-03-12T08:41:59.389Z,13.17
2023-03-12T08:44:28.126Z,13.37
2023-03-12T08:46:56.070Z,13.33
2023-03-12T08:49:24.973Z,12.40
2023-03-12T08:51:53.038Z,12.43
2023-03-12T08:54:21.658Z,13.07
2023-03-12T08:56:52.071Z,12.80
2023-03-12T08:59:23.450Z,13.03
2023-03-12T09:01:51.448Z,13.90
2023-03-12T09:04:19.960Z,12.77
2023-03-12T09:06:48.032Z,13.03
2023-03-12T09:09:16.029Z,13.30
2023-03-12T09:11:44.034Z,12.67
2023-03-12T09:17:02.160Z,11.50
2023-03-12T09:19:30.226Z,10.83
2023-03-12T09:21:58.830Z,11.13
2023-03-12T09:24:26.838Z,12.80
2023-03-12T09:26:54.790Z,11.40
2023-03-12T09:29:23.467Z,10.03
2023-03-12T09:31:51.616Z,10.87
2023-03-12T09:34:20.902Z,10.93
2023-03-12T09:36:48.896Z,10.37
2023-03-12T09:39:17.180Z,11.73
2023-03-12T09:41:48.722Z,11.40
2023-03-12T09:44:25.155Z,10.60
2023-03-12T09:46:56.971Z,9.73
2023-03-12T09:49:35.292Z,9.93
2023-03-12T09:52:09.289Z,9.50
2023-03-12T09:54:42.509Z,10.10
2023-03-12T09:57:15.031Z,9.83
2023-03-12T09:59:43.003Z,10.93
2023-03-12T10:02:29.517Z,10.60
2023-03-12T10:05:04.799Z,9.13
2023-03-12T10:07:36.924Z,8.67
2023-03-12T10:10:15.372Z,9.15
2023-03-12T10:13:05.813Z,9.27
2023-03-12T10:15:42.579Z,8.60
2023-03-12T10:18:22.093Z,8.00
2023-03-12T10:20:59.373Z,8.40
2023-03-12T10:23:39.513Z,7.18
2023-03-12T10:26:13.898Z,7.45
2023-03-12T10:28:44.800Z,7.72
2023-03-12T10:31:20.911Z,7.40
2023-03-12T10:33:53.716Z,7.70
2023-03-12T10:36:27.092Z,7.03
2023-03-12T10:38:55.149Z,8.15
2023-03-12T10:41:26.512Z,7.90
2023-03-12T10:43:56.033Z,6.53
2023-03-12T10:46:52.654Z,6.10
2023-03-12T10:49:30.472Z,7.63
2023-03-12T10:52:02.400Z,7.47
2023-03-12T10:54:33.266Z,6.57
2023-03-12T10:57:01.603Z,7.00
2023-03-12T10:59:32.088Z,7.53
2023-03-12T11:02:01.695Z,7.67
2023-03-12T11:04:32.013Z,7.10
2023-03-12T11:07:20.108Z,7.90
2023-03-12T11:10:04.572Z,8.30
2023-03-12T11:12:34.885Z,8.87
2023-03-12T11:15:20.580Z,7.67
2023-03-12T11:17:49.269Z,8.60
2023-03-12T11:20:27.580Z,8.77
2023-03-12T11:22:57.028Z,9.53
2023-03-12T11:25:27.600Z,7.30
2023-03-12T11:27:57.807Z,7.53
2023-03-12T11:30:33.850Z,9.40
2023-03-12T11:33:04.080Z,8.47
2023-03-12T11:35:44.939Z,8.47
2023-03-12T11:38:19.464Z,7.70
2023-03-12T11:41:02.236Z,6.90
2023-03-12T11:43:45.979Z,7.73
2023-03-12T11:46:23.892Z,7.27
2023-03-12T11:49:03.295Z,7.47
2023-03-12T11:51:43.693Z,7.90
2023-03-12T11:54:31.059Z,7.87
2023-03-12T11:57:03.328Z,9.10
2023-03-12T11:59:54.676Z,7.70
2023-03-12T12:02:44.762Z,7.30
2023-03-12T12:05:33.502Z,7.03
2023-03-12T12:08:22.797Z,8.00
2023-03-12T12:10:59.776Z,7.60
2023-03-12T12:13:37.379Z,6.87
2023-03-12T12:16:17.257Z,7.47
2023-03-12T12:18:58.683Z,7.70
2023-03-12T12:21:43.129Z,8.13
2023-03-12T12:24:25.168Z,8.67
2023-03-12T12:27:03.588Z,8.20
2023-03-12T12:29:49.007Z,7.23
2023-03-12T12:32:25.333Z,8.47
2023-03-12T12:35:15.939Z,7.30
2023-03-12T12:37:51.629Z,7.60
2023-03-12T12:40:28.207Z,7.23
2023-03-12T12:43:04.873Z,6.83
2023-03-12T12:45:32.886Z,8.97
2023-03-12T12:48:05.174Z,8.40
2023-03-12T12:50:37.835Z,7.13
2023-03-12T12:53:15.211Z,7.47
2023-03-12T12:55:51.600Z,8.00
2023-03-12T12:58:27.551Z,7.67
2023-03-12T13:01:00.206Z,7.13
2023-03-12T13:03:30.601Z,7.93
2023-03-12T13:06:00.373Z,7.93
2023-03-12T13:09:15.166Z,6.63
2023-03-12T13:11:47.893Z,6.67
2023-03-12T13:14:36.871Z,7.23
2023-03-12T13:17:19.620Z,6.60
2023-03-12T13:19:55.620Z,6.50
2023-03-12T13:22:41.981Z,5.40
2023-03-12T13:25:24.606Z,6.37
2023-03-12T13:28:00.015Z,6.10
2023-03-12T13:30:50.767Z,6.93
2023-03-12T13:33:21.744Z,7.43
2023-03-12T13:36:05.968Z,6.33
2023-03-12T13:38:38.784Z,5.93
2023-03-12T13:41:08.914Z,6.07
2023-03-12T13:43:56.243Z,7.20
2023-03-12T13:46:42.318Z,6.27
2023-03-12T13:49:17.172Z,5.87
2023-03-12T13:51:48.652Z,7.00
2023-03-12T13:54:19.392Z,7.83
2023-03-12T13:56:57.362Z,6.43
2023-03-12T13:59:27.337Z,6.40
2023-03-12T14:02:02.649Z,6.90
2023-03-12T14:04:38.561Z,7.90
2023-03-12T14:07:32.603Z,10.03
2023-03-12T14:10:11.297Z,7.40
2023-03-12T14:12:49.042Z,8.00
2023-03-12T14:15:31.053Z,8.07
2023-03-12T14:18:03.538Z,7.90
2023-03-12T14:20:32.214Z,7.00
2023-03-12T14:23:05.548Z,7.30
2023-03-12T14:25:37.253Z,7.80
2023-03-12T14:28:11.872Z,9.00
2023-03-12T14:30:49.484Z,8.63
2023-03-12T14:33:20.051Z,8.43
2023-03-12T14:35:52.399Z,8.00
2023-03-12T14:38:27.277Z,7.63
2023-03-12T14:41:01.702Z,7.87
2023-03-12T14:43:31.458Z,7.60
2023-03-12T14:46:01.720Z,8.27
2023-03-12T14:48:33.728Z,8.63
2023-03-12T14:51:03.334Z,8.90
2023-03-12T14:53:33.220Z,8.20
2023-03-12T14:56:03.458Z,8.43
2023-03-12T14:58:31.544Z,7.83
2023-03-12T15:01:01.738Z,8.77
2023-03-12T15:03:32.302Z,8.73
2023-03-12T15:06:01.013Z,9.23
2023-03-12T15:08:29.347Z,8.67
2023-03-12T15:10:59.464Z,8.10
2023-03-12T15:13:29.047Z,8.03
2023-03-12T15:15:57.533Z,8.17
2023-03-12T15:18:29.054Z,8.50
2023-03-12T15:21:00.360Z,8.93
2023-03-12T15:23:31.822Z,9.00
2023-03-12T15:26:14.111Z,9.83
2023-03-12T15:28:43.060Z,9.27
2023-03-12T15:31:14.264Z,9.50
2023-03-12T15:33:43.465Z,9.17
2023-03-12T15:36:25.832Z,9.13
2023-03-12T15:38:56.431Z,9.03
2023-03-12T15:41:28.501Z,9.53
2023-03-12T15:43:58.277Z,8.90
2023-03-12T15:46:27.178Z,7.63
2023-03-12T15:48:57.248Z,8.87
2023-03-12T15:51:33.001Z,9.93
2023-03-12T15:54:02.804Z,8.57
2023-03-12T15:56:33.413Z,8.87
2023-03-12T15:59:04.997Z,8.13
2023-03-12T16:01:46.426Z,8.53
2023-03-12T16:04:14.701Z,8.90
2023-03-12T16:06:46.958Z,8.17
2023-03-12T16:09:19.903Z,8.03
2023-03-12T16:11:48.981Z,8.63
2023-03-12T16:14:20.390Z,8.23
2023-03-12T16:16:48.679Z,8.00
2023-03-12T16:19:18.488Z,9.40
2023-03-12T16:21:48.308Z,9.20
2023-03-12T16:24:17.170Z,9.20
2023-03-12T16:26:49.801Z,8.87
2023-03-12T16:29:19.358Z,9.70
2023-03-12T16:31:52.637Z,9.93
2023-03-12T16:34:20.634Z,9.97
2023-03-12T16:36:49.987Z,9.37
2023-03-12T16:39:19.027Z,9.60
2023-03-12T16:41:47.616Z,10.27
2023-03-12T16:44:19.907Z,10.07
2023-03-12T16:46:48.214Z,10.37
2023-03-12T16:49:18.115Z,10.13
2023-03-12T16:51:46.447Z,9.90
2023-03-12T16:54:15.750Z,10.93
2023-03-12T16:56:46.049Z,9.40
2023-03-12T16:59:23.229Z,9.40
2023-03-12T17:01:51.675Z,10.03
2023-03-12T17:04:19.750Z,9.90
2023-03-12T17:06:47.779Z,11.40
2023-03-12T17:09:17.198Z,11.93
2023-03-12T17:11:45.248Z,12.23
2023-03-12T17:14:18.471Z,12.00
2023-03-12T17:16:46.484Z,12.23
2023-03-12T17:19:15.036Z,11.43
2023-03-12T17:21:44.178Z,11.30
2023-03-12T17:24:13.935Z,11.13
2023-03-12T17:26:44.228Z,11.63
2023-03-12T17:29:12.296Z,11.10
2023-03-12T17:31:40.269Z,10.73
2023-03-12T17:34:08.906Z,10.70
2023-03-12T17:36:38.087Z,10.50
2023-03-12T17:39:06.433Z,9.87
2023-03-12T17:41:34.546Z,10.17
2023-03-12T17:44:03.870Z,11.37
2023-03-12T17:46:32.273Z,10.30
2023-03-12T17:49:00.325Z,9.67
2023-03-12T17:51:28.429Z,9.73
2023-03-12T17:53:56.452Z,9.37
2023-03-12T17:56:24.449Z,9.70
2023-03-12T17:58:52.477Z,11.27
2023-03-12T18:01:21.856Z,10.70
2023-03-12T18:03:51.269Z,9.20
2023-03-12T18:06:19.994Z,10.97
2023-03-12T18:08:48.114Z,10.60
2023-03-12T18:11:16.314Z,9.97
2023-03-12T18:13:44.295Z,9.37
2023-03-12T18:16:12.443Z,9.20
2023-03-12T18:18:41.834Z,9.97
2023-03-12T18:21:09.817Z,9.03
2023-03-12T18:23:37.837Z,10.03
2023-03-12T18:26:06.289Z,8.90
2023-03-12T18:28:34.290Z,8.73
2023-03-12T18:31:02.406Z,7.53
2023-03-12T18:33:30.972Z,8.47
2023-03-12T18:36:00.366Z,8.30
2023-03-12T18:38:28.777Z,8.00
2023-03-12T18:41:04.593Z,8.53
2023-03-12T18:43:33.128Z,8.03
2023-03-12T18:46:01.215Z,8.53
2023-03-12T18:48:29.386Z,8.97
2023-03-12T18:50:57.579Z,8.93
2023-03-12T18:53:27.053Z,8.80
2023-03-12T18:55:55.756Z,8.73
2023-03-12T18:58:24.644Z,8.20
2023-03-12T19:00:53.508Z,8.30
2023-03-12T19:03:22.572Z,8.73
2023-03-12T19:06:00.876Z,8.53
2023-03-12T19:08:30.459Z,7.87
2023-03-12T19:10:58.571Z,8.60
2023-03-12T19:13:26.751Z,8.47
2023-03-12T19:15:59.676Z,8.37
2023-03-12T19:18:28.053Z,7.97
2023-03-12T19:20:56.448Z,8.97
2023-03-12T19:23:24.969Z,8.43
2023-03-12T19:25:54.328Z,9.40
2023-03-12T19:28:22.904Z,8.67
2023-03-12T19:30:50.924Z,8.77
2023-03-12T19:33:18.885Z,8.50
2023-03-12T19:35:46.897Z,8.73
2023-03-12T19:38:14.851Z,9.27
2023-03-12T19:40:42.831Z,9.33
2023-03-12T19:43:12.221Z,9.73
2023-03-12T19:45:40.222Z,9.73
2023-03-12T19:48:08.497Z,9.50
2023-03-12T19:50:36.618Z,9.60
2023-03-12T19:53:04.570Z,10.80
2023-03-12T19:55:32.574Z,9.77
2023-03-12T19:58:00.554Z,11.20
2023-03-12T20:00:31.289Z,10.73
2023-03-12T20:02:59.736Z,10.63
2023-03-12T20:05:27.871Z,11.10
2023-03-12T20:07:55.821Z,11.07
2023-03-12T20:10:23.782Z,10.83
2023-03-12T20:12:51.742Z,10.50
2023-03-12T20:15:19.896Z,10.27
2023-03-12T20:17:49.216Z,9.67
2023-03-12T20:20:17.605Z,10.10
2023-03-12T20:22:45.553Z,9.83
2023-03-12T20:25:13.515Z,9.97
2023-03-12T20:27:41.601Z,10.10
2023-03-12T20:30:11.594Z,10.13
2023-03-12T20:32:39.578Z,9.80
2023-03-12T20:35:09.839Z,9.77
2023-03-12T20:37:37.982Z,9.87
2023-03-12T20:40:07.014Z,10.00
2023-03-12T20:42:35.128Z,10.10
2023-03-12T20:45:03.166Z,8.97
2023-03-12T20:47:31.236Z,9.90
2023-03-12T20:49:59.194Z,9.63
2023-03-12T20:52:28.542Z,9.53
2023-03-12T20:54:56.490Z,10.37
2023-03-12T20:57:24.485Z,10.07
2023-03-12T20:59:52.560Z,9.63
2023-03-12T21:02:20.604Z,9.80
2023-03-12T21:04:49.458Z,9.87
2023-03-12T21:07:17.457Z,9.60
2023-03-12T21:09:46.775Z,9.90
2023-03-12T21:12:14.909Z,10.20
2023-03-12T21:14:43.231Z,9.90
2023-03-12T21:17:13.675Z,9.63
2023-03-12T21:19:42.546Z,11.20
2023-03-12T21:22:10.787Z,10.50
2023-03-12T21:24:38.895Z,11.17
2023-03-12T21:27:11.331Z,11.13
2023-03-12T21:29:39.445Z,11.37
2023-03-12T21:32:07.573Z,11.37
2023-03-12T21:34:36.717Z,10.80
2023-03-12T21:37:04.691Z,11.70
2023-03-12T21:39:32.707Z,11.47
2023-03-12T21:42:00.679Z,10.63
2023-03-12T21:44:30.173Z,10.47
2023-03-12T21:46:58.838Z,11.00
2023-03-12T21:49:26.892Z,11.27
2023-03-12T21:51:54.953Z,10.80
2023-03-12T21:54:22.915Z,11.10
2023-03-12T21:56:50.900Z,10.43
2023-03-12T21:59:18.900Z,10.73
2023-03-12T22:01:48.292Z,9.70
2023-03-12T22:04:16.369Z,10.63
2023-03-12T22:06:44.474Z,9.63
2023-03-12T22:09:12.417Z,10.43
2023-03-12T22:11:40.447Z,10.47
2023-03-12T22:14:08.612Z,10.00
2023-03-12T22:16:36.609Z,10.87
2023-03-12T22:19:07.398Z,10.93
2023-03-12T22:21:35.354Z,10.00
2023-03-12T22:24:03.533Z,9.73
2023-03-12T22:26:32.075Z,10.60
2023-03-12T22:29:01.201Z,11.10
2023-03-12T22:31:30.769Z,10.43
2023-03-12T22:33:59.005Z,10.87
2023-03-12T22:36:28.832Z,11.27
2023-03-12T22:38:56.823Z,10.33
2023-03-12T22:41:26.132Z,10.13
2023-03-12T22:43:56.239Z,10.03
2023-03-12T22:46:26.052Z,10.97
2023-03-12T22:48:55.756Z,10.17
2023-03-12T22:51:24.203Z,10.17
2023-03-12T22:53:53.775Z,9.27
2023-03-12T22:56:21.840Z,9.10
2023-03-12T22:58:50.127Z,8.80
2023-03-12T23:01:20.087Z,8.70
2023-03-12T23:03:49.104Z,7.60
2023-03-12T23:06:18.990Z,7.67
2023-03-12T23:08:48.009Z,6.80
2023-03-12T23:11:18.786Z,7.00
2023-03-12T23:13:48.246Z,7.20
2023-03-12T23:16:18.838Z,7.70
2023-03-12T23:18:47.527Z,6.87
2023-03-12T23:21:18.081Z,7.13
2023-03-12T23:23:46.400Z,7.07
2023-03-12T23:26:16.860Z,7.47
2023-03-12T23:28:47.571Z,7.30
2023-03-12T23:31:17.017Z,6.97
2023-03-12T23:33:45.112Z,7.67
2023-03-12T23:36:15.335Z,7.33
2023-03-12T23:38:43.959Z,6.83
2023-03-12T23:41:14.020Z,7.20
2023-03-12T23:43:42.304Z,6.93
2023-03-12T23:46:13.311Z,6.83
2023-03-12T23:48:42.153Z,6.67
2023-03-12T23:51:12.033Z,6.67
2023-03-12T23:53:41.752Z,7.17
2023-03-12T23:56:12.709Z,6.90
2023-03-12T23:58:40.675Z,6.40
